sensor_id;sensor_type;location;lat;lon;timestamp;pressure;altitude;pressure_sealevel;temperature;humidity
37856;BME280;23694;43.274;26.924;2024-02-23T00:00:25;98748.16;;;6.59;100.00
37856;BME280;23694;43.274;26.924;2024-02-23T00:02:52;98748.91;;;6.61;100.00
37856;BME280;23694;43.274;26.924;2024-02-23T00:05:19;98730.94;;;6.72;100.00
37856;BME280;23694;43.274;26.924;2024-02-23T00:07:46;98729.00;;;6.60;100.00
37856;BME280;23694;43.274;26.924;2024-02-23T00:10:12;98736.22;;;6.71;100.00
37856;BME280;23694;43.274;26.924;2024-02-23T00:12:39;98734.44;;;6.71;100.00
37856;BME280;23694;43.274;26.924;2024-02-23T00:15:05;98739.97;;;6.81;100.00
37856;BME280;23694;43.274;26.924;2024-02-23T00:17:33;98732.84;;;6.68;100.00
37856;BME280;23694;43.274;26.924;2024-02-23T00:19:59;98726.31;;;6.77;99.77
37856;BME280;23694;43.274;26.924;2024-02-23T00:22:25;98724.31;;;6.66;100.00
37856;BME280;23694;43.274;26.924;2024-02-23T00:24:51;98727.06;;;6.63;100.00
37856;BME280;23694;43.274;26.924;2024-02-23T00:27:18;98725.91;;;6.69;100.00
37856;BME280;23694;43.274;26.924;2024-02-23T00:29:44;98717.06;;;6.72;99.68
37856;BME280;23694;43.274;26.924;2024-02-23T00:32:10;98720.44;;;6.58;100.00
37856;BME280;23694;43.274;26.924;2024-02-23T00:34:56;98715.56;;;6.67;100.00
37856;BME280;23694;43.274;26.924;2024-02-23T00:37:24;98714.47;;;6.72;100.00
37856;BME280;23694;43.274;26.924;2024-02-23T00:39:50;98720.78;;;6.67;100.00
37856;BME280;23694;43.274;26.924;2024-02-23T00:42:17;98714.88;;;6.32;100.00
37856;BME280;23694;43.274;26.924;2024-02-23T00:44:44;98704.41;;;6.50;100.00
37856;BME280;23694;43.274;26.924;2024-02-23T00:47:11;98697.47;;;6.50;100.00
37856;BME280;23694;43.274;26.924;2024-02-23T00:49:37;98691.38;;;6.50;100.00
37856;BME280;23694;43.274;26.924;2024-02-23T00:52:03;98691.81;;;6.26;100.00
37856;BME280;23694;43.274;26.924;2024-02-23T00:54:30;98689.31;;;6.25;100.00
37856;BME280;23694;43.274;26.924;2024-02-23T00:56:56;98687.78;;;6.21;100.00
37856;BME280;23694;43.274;26.924;2024-02-23T00:59:22;98683.25;;;6.24;100.00
37856;BME280;23694;43.274;26.924;2024-02-23T01:01:48;98682.66;;;6.35;100.00
37856;BME280;23694;43.274;26.924;2024-02-23T01:04:15;98681.31;;;6.44;100.00
37856;BME280;23694;43.274;26.924;2024-02-23T01:06:41;98681.75;;;6.36;100.00
37856;BME280;23694;43.274;26.924;2024-02-23T01:09:07;98689.47;;;6.38;100.00
37856;BME280;23694;43.274;26.924;2024-02-23T01:11:34;98683.16;;;6.42;100.00
37856;BME280;23694;43.274;26.924;2024-02-23T01:14:01;98664.63;;;6.16;100.00
37856;BME280;23694;43.274;26.924;2024-02-23T01:16:27;98668.75;;;6.36;100.00
37856;BME280;23694;43.274;26.924;2024-02-23T01:18:53;98656.56;;;6.36;100.00
37856;BME280;23694;43.274;26.924;2024-02-23T01:21:19;98663.78;;;6.47;100.00
37856;BME280;23694;43.274;26.924;2024-02-23T01:23:46;98653.97;;;6.36;100.00
37856;BME280;23694;43.274;26.924;2024-02-23T01:26:13;98658.50;;;6.33;100.00
37856;BME280;23694;43.274;26.924;2024-02-23T01:28:39;98651.63;;;6.32;100.00
37856;BME280;23694;43.274;26.924;2024-02-23T01:31:08;98651.59;;;6.48;100.00
37856;BME280;23694;43.274;26.924;2024-02-23T01:33:37;98642.47;;;6.41;100.00
37856;BME280;23694;43.274;26.924;2024-02-23T01:36:07;98640.28;;;6.33;100.00
37856;BME280;23694;43.274;26.924;2024-02-23T01:38:34;98644.66;;;6.32;100.00
37856;BME280;23694;43.274;26.924;2024-02-23T01:41:01;98646.44;;;6.16;100.00
37856;BME280;23694;43.274;26.924;2024-02-23T01:43:28;98632.44;;;6.19;100.00
37856;BME280;23694;43.274;26.924;2024-02-23T01:45:56;98634.03;;;6.21;100.00
37856;BME280;23694;43.274;26.924;2024-02-23T01:48:24;98646.25;;;6.35;100.00
37856;BME280;23694;43.274;26.924;2024-02-23T01:50:53;98631.22;;;6.40;100.00
37856;BME280;23694;43.274;26.924;2024-02-23T01:53:20;98629.06;;;6.32;100.00
37856;BME280;23694;43.274;26.924;2024-02-23T01:55:48;98623.75;;;6.50;100.00
37856;BME280;23694;43.274;26.924;2024-02-23T01:58:15;98622.41;;;6.58;100.00
37856;BME280;23694;43.274;26.924;2024-02-23T02:00:42;98632.41;;;6.50;100.00
37856;BME280;23694;43.274;26.924;2024-02-23T02:03:09;98625.44;;;6.35;100.00
37856;BME280;23694;43.274;26.924;2024-02-23T02:05:38;98624.75;;;6.47;100.00
37856;BME280;23694;43.274;26.924;2024-02-23T02:08:05;98627.97;;;6.52;100.00
37856;BME280;23694;43.274;26.924;2024-02-23T02:10:32;98624.34;;;6.55;100.00
37856;BME280;23694;43.274;26.924;2024-02-23T02:13:05;98632.25;;;6.53;100.00
37856;BME280;23694;43.274;26.924;2024-02-23T02:15:31;98635.69;;;6.38;100.00
37856;BME280;23694;43.274;26.924;2024-02-23T02:17:58;98631.41;;;6.37;100.00
37856;BME280;23694;43.274;26.924;2024-02-23T02:20:25;98631.00;;;6.29;100.00
37856;BME280;23694;43.274;26.924;2024-02-23T02:22:54;98631.41;;;6.37;100.00
37856;BME280;23694;43.274;26.924;2024-02-23T02:25:20;98634.69;;;6.25;100.00
37856;BME280;23694;43.274;26.924;2024-02-23T02:27:47;98636.38;;;6.26;100.00
37856;BME280;23694;43.274;26.924;2024-02-23T02:30:13;98636.19;;;6.29;100.00
37856;BME280;23694;43.274;26.924;2024-02-23T02:32:40;98629.22;;;6.29;100.00
37856;BME280;23694;43.274;26.924;2024-02-23T02:35:06;98643.09;;;6.14;100.00
37856;BME280;23694;43.274;26.924;2024-02-23T02:37:33;98635.72;;;5.91;100.00
37856;BME280;23694;43.274;26.924;2024-02-23T02:39:59;98636.53;;;6.07;100.00
37856;BME280;23694;43.274;26.924;2024-02-23T02:42:25;98641.16;;;6.18;100.00
37856;BME280;23694;43.274;26.924;2024-02-23T02:44:54;98641.75;;;6.23;100.00
37856;BME280;23694;43.274;26.924;2024-02-23T02:47:20;98629.16;;;5.99;100.00
37856;BME280;23694;43.274;26.924;2024-02-23T02:49:48;98642.09;;;5.84;100.00
37856;BME280;23694;43.274;26.924;2024-02-23T02:52:14;98641.66;;;5.93;100.00
37856;BME280;23694;43.274;26.924;2024-02-23T02:54:41;98635.13;;;6.01;100.00
37856;BME280;23694;43.274;26.924;2024-02-23T02:57:07;98625.06;;;6.11;100.00
37856;BME280;23694;43.274;26.924;2024-02-23T02:59:36;98630.00;;;6.00;100.00
37856;BME280;23694;43.274;26.924;2024-02-23T03:02:04;98627.66;;;6.11;100.00
37856;BME280;23694;43.274;26.924;2024-02-23T03:04:30;98622.19;;;6.16;100.00
37856;BME280;23694;43.274;26.924;2024-02-23T03:06:59;98616.97;;;6.31;100.00
37856;BME280;23694;43.274;26.924;2024-02-23T03:09:26;98632.31;;;6.36;100.00
37856;BME280;23694;43.274;26.924;2024-02-23T03:11:53;98634.94;;;6.36;100.00
37856;BME280;23694;43.274;26.924;2024-02-23T03:14:19;98624.88;;;6.14;100.00
37856;BME280;23694;43.274;26.924;2024-02-23T03:16:49;98625.44;;;6.35;100.00
37856;BME280;23694;43.274;26.924;2024-02-23T03:19:15;98623.28;;;6.12;100.00
37856;BME280;23694;43.274;26.924;2024-02-23T03:21:41;98624.97;;;5.97;100.00
37856;BME280;23694;43.274;26.924;2024-02-23T03:24:08;98629.00;;;6.18;100.00
37856;BME280;23694;43.274;26.924;2024-02-23T03:26:34;98626.13;;;6.23;100.00
37856;BME280;23694;43.274;26.924;2024-02-23T03:29:01;98638.44;;;6.35;100.00
37856;BME280;23694;43.274;26.924;2024-02-23T03:31:27;98640.63;;;6.43;100.00
37856;BME280;23694;43.274;26.924;2024-02-23T03:33:53;98640.97;;;6.36;100.00
37856;BME280;23694;43.274;26.924;2024-02-23T03:36:19;98635.75;;;6.36;100.00
37856;BME280;23694;43.274;26.924;2024-02-23T03:38:47;98630.66;;;6.19;100.00
37856;BME280;23694;43.274;26.924;2024-02-23T03:41:13;98628.66;;;6.24;100.00
37856;BME280;23694;43.274;26.924;2024-02-23T03:43:39;98624.88;;;5.98;100.00
37856;BME280;23694;43.274;26.924;2024-02-23T03:46:06;98633.00;;;6.24;100.00
37856;BME280;23694;43.274;26.924;2024-02-23T03:48:33;98633.34;;;6.33;100.00
37856;BME280;23694;43.274;26.924;2024-02-23T03:51:03;98638.63;;;6.32;100.00
37856;BME280;23694;43.274;26.924;2024-02-23T03:53:30;98638.94;;;6.42;100.00
37856;BME280;23694;43.274;26.924;2024-02-23T03:55:57;98632.44;;;6.19;100.00
37856;BME280;23694;43.274;26.924;2024-02-23T03:58:24;98636.38;;;6.26;100.00
37856;BME280;23694;43.274;26.924;2024-02-23T04:00:52;98630.06;;;6.30;100.00
37856;BME280;23694;43.274;26.924;2024-02-23T04:03:20;98625.69;;;6.30;100.00
37856;BME280;23694;43.274;26.924;2024-02-23T04:05:46;98623.28;;;6.27;100.00
37856;BME280;23694;43.274;26.924;2024-02-23T04:08:13;98630.38;;;6.40;100.00
37856;BME280;23694;43.274;26.924;2024-02-23T04:10:40;98627.59;;;6.43;100.00
37856;BME280;23694;43.274;26.924;2024-02-23T04:13:06;98620.25;;;6.35;100.00
37856;BME280;23694;43.274;26.924;2024-02-23T04:15:33;98617.63;;;6.35;100.00
37856;BME280;23694;43.274;26.924;2024-02-23T04:17:59;98624.84;;;6.46;100.00
37856;BME280;23694;43.274;26.924;2024-02-23T04:20:25;98621.13;;;6.50;100.00
37856;BME280;23694;43.274;26.924;2024-02-23T04:22:51;98613.56;;;6.15;100.00
37856;BME280;23694;43.274;26.924;2024-02-23T04:25:19;98619.84;;;6.27;100.00
37856;BME280;23694;43.274;26.924;2024-02-23T04:27:45;98614.13;;;6.20;100.00
37856;BME280;23694;43.274;26.924;2024-02-23T04:30:12;98621.25;;;6.32;100.00
37856;BME280;23694;43.274;26.924;2024-02-23T04:32:38;98626.03;;;6.40;100.00
37856;BME280;23694;43.274;26.924;2024-02-23T04:35:05;98620.47;;;6.46;100.00
37856;BME280;23694;43.274;26.924;2024-02-23T04:37:32;98630.78;;;6.48;100.00
37856;BME280;23694;43.274;26.924;2024-02-23T04:39:58;98626.03;;;6.40;100.00
37856;BME280;23694;43.274;26.924;2024-02-23T04:42:24;98628.88;;;6.35;100.00
37856;BME280;23694;43.274;26.924;2024-02-23T04:44:50;98624.44;;;6.38;100.00
37856;BME280;23694;43.274;26.924;2024-02-23T04:47:18;98625.28;;;6.38;100.00
37856;BME280;23694;43.274;26.924;2024-02-23T04:49:44;98637.75;;;6.47;100.00
37856;BME280;23694;43.274;26.924;2024-02-23T04:52:11;98632.31;;;6.36;100.00
37856;BME280;23694;43.274;26.924;2024-02-23T04:54:37;98637.53;;;6.52;100.00
37856;BME280;23694;43.274;26.924;2024-02-23T04:57:04;98636.00;;;6.48;100.00
37856;BME280;23694;43.274;26.924;2024-02-23T04:59:30;98641.63;;;6.56;100.00
37856;BME280;23694;43.274;26.924;2024-02-23T05:01:58;98640.28;;;6.64;100.00
37856;BME280;23694;43.274;26.924;2024-02-23T05:04:24;98642.97;;;6.63;100.00
37856;BME280;23694;43.274;26.924;2024-02-23T05:06:52;98653.91;;;6.54;100.00
37856;BME280;23694;43.274;26.924;2024-02-23T05:09:19;98661.25;;;6.61;100.00
37856;BME280;23694;43.274;26.924;2024-02-23T05:11:46;98659.41;;;6.93;100.00
37856;BME280;23694;43.274;26.924;2024-02-23T05:14:14;98670.09;;;7.19;100.00
37856;BME280;23694;43.274;26.924;2024-02-23T05:16:40;98666.47;;;7.21;100.00
37856;BME280;23694;43.274;26.924;2024-02-23T05:19:06;98665.84;;;7.32;100.00
37856;BME280;23694;43.274;26.924;2024-02-23T05:21:32;98663.53;;;7.42;100.00
37856;BME280;23694;43.274;26.924;2024-02-23T05:23:59;98661.56;;;7.45;99.65
37856;BME280;23694;43.274;26.924;2024-02-23T05:26:26;98670.50;;;7.41;99.72
37856;BME280;23694;43.274;26.924;2024-02-23T05:28:52;98662.66;;;7.27;99.58
37856;BME280;23694;43.274;26.924;2024-02-23T05:31:19;98664.53;;;7.25;100.00
37856;BME280;23694;43.274;26.924;2024-02-23T05:33:46;98660.75;;;7.15;100.00
37856;BME280;23694;43.274;26.924;2024-02-23T05:36:12;98669.81;;;7.23;100.00
37856;BME280;23694;43.274;26.924;2024-02-23T05:38:48;98672.25;;;7.41;100.00
37856;BME280;23694;43.274;26.924;2024-02-23T05:41:16;98673.19;;;7.40;100.00
37856;BME280;23694;43.274;26.924;2024-02-23T05:43:44;98670.31;;;7.44;100.00
37856;BME280;23694;43.274;26.924;2024-02-23T05:46:11;98646.22;;;7.55;100.00
37856;BME280;23694;43.274;26.924;2024-02-23T05:48:38;98660.44;;;7.78;99.08
37856;BME280;23694;43.274;26.924;2024-02-23T05:51:04;98662.22;;;7.91;98.28
37856;BME280;23694;43.274;26.924;2024-02-23T05:53:30;98658.66;;;8.07;97.18
37856;BME280;23694;43.274;26.924;2024-02-23T05:55:58;98650.06;;;8.19;96.28
37856;BME280;23694;43.274;26.924;2024-02-23T05:58:25;98658.72;;;8.34;94.86
37856;BME280;23694;43.274;26.924;2024-02-23T06:00:52;98658.50;;;8.51;92.99
37856;BME280;23694;43.274;26.924;2024-02-23T06:03:19;98658.56;;;8.64;91.74
37856;BME280;23694;43.274;26.924;2024-02-23T06:05:46;98665.34;;;8.66;90.95
37856;BME280;23694;43.274;26.924;2024-02-23T06:08:12;98656.84;;;8.50;91.06
37856;BME280;23694;43.274;26.924;2024-02-23T06:10:39;98673.16;;;8.93;89.50
37856;BME280;23694;43.274;26.924;2024-02-23T06:13:05;98672.28;;;9.19;88.42
37856;BME280;23694;43.274;26.924;2024-02-23T06:15:32;98675.94;;;9.68;84.26
37856;BME280;23694;43.274;26.924;2024-02-23T06:17:58;98676.06;;;9.92;82.80
37856;BME280;23694;43.274;26.924;2024-02-23T06:20:24;98678.06;;;10.37;79.55
37856;BME280;23694;43.274;26.924;2024-02-23T06:22:50;98685.31;;;11.52;74.11
37856;BME280;23694;43.274;26.924;2024-02-23T06:25:17;98675.47;;;13.41;63.17
37856;BME280;23694;43.274;26.924;2024-02-23T06:27:43;98686.84;;;13.09;60.08
37856;BME280;23694;43.274;26.924;2024-02-23T06:30:09;98683.38;;;12.11;63.79
37856;BME280;23694;43.274;26.924;2024-02-23T06:32:37;98692.84;;;11.67;66.73
37856;BME280;23694;43.274;26.924;2024-02-23T06:35:03;98688.50;;;12.01;66.91
37856;BME280;23694;43.274;26.924;2024-02-23T06:37:32;98684.59;;;12.61;65.28
37856;BME280;23694;43.274;26.924;2024-02-23T06:39:59;98683.75;;;12.72;63.63
37856;BME280;23694;43.274;26.924;2024-02-23T06:42:25;98686.97;;;13.08;62.61
37856;BME280;23694;43.274;26.924;2024-02-23T06:44:52;98690.75;;;13.98;58.79
37856;BME280;23694;43.274;26.924;2024-02-23T06:47:19;98691.84;;;15.63;52.66
37856;BME280;23694;43.274;26.924;2024-02-23T06:49:46;98683.50;;;16.59;49.33
37856;BME280;23694;43.274;26.924;2024-02-23T06:52:13;98689.31;;;17.26;46.72
37856;BME280;23694;43.274;26.924;2024-02-23T06:54:39;98688.53;;;18.03;44.80
37856;BME280;23694;43.274;26.924;2024-02-23T06:57:06;98686.84;;;17.68;45.16
37856;BME280;23694;43.274;26.924;2024-02-23T06:59:32;98689.53;;;17.32;45.93
37856;BME280;23694;43.274;26.924;2024-02-23T07:01:58;98692.06;;;16.98;46.56
37856;BME280;23694;43.274;26.924;2024-02-23T07:04:24;98679.84;;;16.70;47.46
37856;BME280;23694;43.274;26.924;2024-02-23T07:06:51;98687.44;;;16.55;48.04
37856;BME280;23694;43.274;26.924;2024-02-23T07:09:17;98687.88;;;15.86;49.47
37856;BME280;23694;43.274;26.924;2024-02-23T07:11:43;98692.09;;;15.40;50.36
37856;BME280;23694;43.274;26.924;2024-02-23T07:14:11;98689.72;;;14.60;53.28
37856;BME280;23694;43.274;26.924;2024-02-23T07:16:40;98678.81;;;14.34;54.30
37856;BME280;23694;43.274;26.924;2024-02-23T07:19:07;98686.03;;;13.71;57.28
37856;BME280;23694;43.274;26.924;2024-02-23T07:21:34;98685.22;;;13.29;59.03
37856;BME280;23694;43.274;26.924;2024-02-23T07:24:00;98681.31;;;13.23;60.64
37856;BME280;23694;43.274;26.924;2024-02-23T07:26:28;98676.09;;;13.54;60.10
37856;BME280;23694;43.274;26.924;2024-02-23T07:28:55;98678.31;;;13.79;59.36
37856;BME280;23694;43.274;26.924;2024-02-23T07:31:21;98671.69;;;13.85;58.34
37856;BME280;23694;43.274;26.924;2024-02-23T07:33:48;98684.63;;;13.46;60.04
37856;BME280;23694;43.274;26.924;2024-02-23T07:36:17;98677.09;;;12.89;63.08
37856;BME280;23694;43.274;26.924;2024-02-23T07:38:44;98693.09;;;12.97;63.83
37856;BME280;23694;43.274;26.924;2024-02-23T07:41:11;98683.13;;;12.80;64.00
37856;BME280;23694;43.274;26.924;2024-02-23T07:43:39;98680.03;;;12.09;66.00
37856;BME280;23694;43.274;26.924;2024-02-23T07:46:05;98676.66;;;11.73;67.76
37856;BME280;23694;43.274;26.924;2024-02-23T07:48:35;98684.00;;;11.46;70.23
37856;BME280;23694;43.274;26.924;2024-02-23T07:51:02;98694.06;;;11.74;69.85
37856;BME280;23694;43.274;26.924;2024-02-23T07:53:29;98692.69;;;11.35;71.94
37856;BME280;23694;43.274;26.924;2024-02-23T07:55:55;98696.03;;;12.06;69.69
37856;BME280;23694;43.274;26.924;2024-02-23T07:58:25;98697.19;;;12.13;67.90
37856;BME280;23694;43.274;26.924;2024-02-23T08:00:54;98700.03;;;12.55;66.81
37856;BME280;23694;43.274;26.924;2024-02-23T08:03:20;98692.22;;;12.76;66.40
37856;BME280;23694;43.274;26.924;2024-02-23T08:05:46;98691.31;;;12.54;65.48
37856;BME280;23694;43.274;26.924;2024-02-23T08:08:12;98701.97;;;11.97;68.64
37856;BME280;23694;43.274;26.924;2024-02-23T08:10:48;98703.81;;;11.61;70.85
37856;BME280;23694;43.274;26.924;2024-02-23T08:13:15;98688.81;;;12.30;69.48
37856;BME280;23694;43.274;26.924;2024-02-23T08:15:45;98678.59;;;12.70;66.18
37856;BME280;23694;43.274;26.924;2024-02-23T08:18:11;98684.47;;;13.06;66.84
37856;BME280;23694;43.274;26.924;2024-02-23T08:20:38;98690.31;;;12.98;65.03
37856;BME280;23694;43.274;26.924;2024-02-23T08:23:04;98684.97;;;13.32;63.74
37856;BME280;23694;43.274;26.924;2024-02-23T08:25:31;98687.69;;;12.98;62.51
37856;BME280;23694;43.274;26.924;2024-02-23T08:27:58;98680.59;;;12.35;64.74
37856;BME280;23694;43.274;26.924;2024-02-23T08:30:25;98686.53;;;12.91;63.37
37856;BME280;23694;43.274;26.924;2024-02-23T08:32:51;98692.63;;;12.92;61.87
37856;BME280;23694;43.274;26.924;2024-02-23T08:35:17;98678.84;;;13.31;59.99
37856;BME280;23694;43.274;26.924;2024-02-23T08:37:45;98683.84;;;13.55;61.57
37856;BME280;23694;43.274;26.924;2024-02-23T08:40:12;98680.78;;;12.97;60.02
37856;BME280;23694;43.274;26.924;2024-02-23T08:42:38;98679.88;;;13.19;59.83
37856;BME280;23694;43.274;26.924;2024-02-23T08:45:05;98684.56;;;13.37;58.78
37856;BME280;23694;43.274;26.924;2024-02-23T08:47:31;98689.38;;;13.73;58.51
37856;BME280;23694;43.274;26.924;2024-02-23T08:50:00;98692.13;;;13.72;57.47
37856;BME280;23694;43.274;26.924;2024-02-23T08:52:26;98688.84;;;13.58;57.19
37856;BME280;23694;43.274;26.924;2024-02-23T08:54:52;98684.44;;;13.59;58.10
37856;BME280;23694;43.274;26.924;2024-02-23T08:57:19;98684.19;;;13.92;54.94
37856;BME280;23694;43.274;26.924;2024-02-23T08:59:46;98682.22;;;14.15;53.92
37856;BME280;23694;43.274;26.924;2024-02-23T09:02:13;98683.81;;;14.37;52.68
37856;BME280;23694;43.274;26.924;2024-02-23T09:04:39;98685.06;;;14.33;53.25
37856;BME280;23694;43.274;26.924;2024-02-23T09:07:06;98681.81;;;14.20;52.97
37856;BME280;23694;43.274;26.924;2024-02-23T09:09:32;98691.69;;;13.25;55.59
37856;BME280;23694;43.274;26.924;2024-02-23T09:11:58;98689.31;;;13.22;55.92
37856;BME280;23694;43.274;26.924;2024-02-23T09:14:24;98688.16;;;13.56;56.00
37856;BME280;23694;43.274;26.924;2024-02-23T09:16:51;98684.50;;;13.99;54.08
37856;BME280;23694;43.274;26.924;2024-02-23T09:19:19;98679.00;;;14.12;53.27
37856;BME280;23694;43.274;26.924;2024-02-23T09:21:46;98680.22;;;14.38;52.95
37856;BME280;23694;43.274;26.924;2024-02-23T09:24:12;98681.75;;;14.41;52.68
37856;BME280;23694;43.274;26.924;2024-02-23T09:26:38;98689.44;;;14.23;53.45
37856;BME280;23694;43.274;26.924;2024-02-23T09:29:05;98678.31;;;13.79;55.12
37856;BME280;23694;43.274;26.924;2024-02-23T09:31:32;98684.50;;;13.99;54.79
37856;BME280;23694;43.274;26.924;2024-02-23T09:33:58;98675.81;;;13.78;54.68
37856;BME280;23694;43.274;26.924;2024-02-23T09:36:25;98672.78;;;14.13;54.12
37856;BME280;23694;43.274;26.924;2024-02-23T09:38:51;98677.78;;;14.16;53.71
37856;BME280;23694;43.274;26.924;2024-02-23T09:41:21;98681.06;;;14.08;53.68
37856;BME280;23694;43.274;26.924;2024-02-23T09:43:49;98679.72;;;14.14;53.85
37856;BME280;23694;43.274;26.924;2024-02-23T09:46:16;98678.34;;;14.50;53.25
37856;BME280;23694;43.274;26.924;2024-02-23T09:48:47;98673.63;;;14.53;53.04
37856;BME280;23694;43.274;26.924;2024-02-23T09:51:17;98674.31;;;14.55;53.04
37856;BME280;23694;43.274;26.924;2024-02-23T09:53:44;98667.53;;;14.63;52.74
37856;BME280;23694;43.274;26.924;2024-02-23T09:56:10;98667.09;;;14.57;52.78
37856;BME280;23694;43.274;26.924;2024-02-23T09:58:37;98656.56;;;14.57;53.12
37856;BME280;23694;43.274;26.924;2024-02-23T10:01:05;98652.22;;;14.37;54.71
37856;BME280;23694;43.274;26.924;2024-02-23T10:03:31;98656.00;;;14.44;54.91
37856;BME280;23694;43.274;26.924;2024-02-23T10:05:58;98653.31;;;14.35;54.61
37856;BME280;23694;43.274;26.924;2024-02-23T10:08:27;98653.94;;;14.77;53.92
37856;BME280;23694;43.274;26.924;2024-02-23T10:10:55;98654.06;;;14.66;53.02
37856;BME280;23694;43.274;26.924;2024-02-23T10:13:24;98654.34;;;14.63;53.26
37856;BME280;23694;43.274;26.924;2024-02-23T10:15:51;98656.03;;;14.73;53.06
37856;BME280;23694;43.274;26.924;2024-02-23T10:18:18;98656.03;;;14.64;53.41
37856;BME280;23694;43.274;26.924;2024-02-23T10:20:46;98651.84;;;14.61;53.35
37856;BME280;23694;43.274;26.924;2024-02-23T10:23:12;98640.78;;;14.96;51.17
37856;BME280;23694;43.274;26.924;2024-02-23T10:25:38;98648.53;;;15.17;50.33
37856;BME280;23694;43.274;26.924;2024-02-23T10:28:06;98647.41;;;15.29;49.09
37856;BME280;23694;43.274;26.924;2024-02-23T10:30:33;98640.13;;;15.50;48.71
37856;BME280;23694;43.274;26.924;2024-02-23T10:32:59;98638.34;;;15.41;49.35
37856;BME280;23694;43.274;26.924;2024-02-23T10:35:26;98627.63;;;15.52;48.16
37856;BME280;23694;43.274;26.924;2024-02-23T10:37:56;98624.03;;;15.44;47.30
37856;BME280;23694;43.274;26.924;2024-02-23T10:40:24;98618.53;;;15.28;46.19
37856;BME280;23694;43.274;26.924;2024-02-23T10:42:56;98618.09;;;15.32;42.12
37856;BME280;23694;43.274;26.924;2024-02-23T10:45:24;98611.81;;;15.43;44.26
37856;BME280;23694;43.274;26.924;2024-02-23T10:47:51;98607.97;;;15.28;45.56
37856;BME280;23694;43.274;26.924;2024-02-23T10:50:18;98617.94;;;15.43;43.30
37856;BME280;23694;43.274;26.924;2024-02-23T10:52:45;98601.66;;;15.48;41.86
37856;BME280;23694;43.274;26.924;2024-02-23T10:55:15;98608.09;;;15.82;40.48
37856;BME280;23694;43.274;26.924;2024-02-23T10:57:43;98606.44;;;16.09;41.39
37856;BME280;23694;43.274;26.924;2024-02-23T11:00:10;98614.06;;;16.57;40.01
37856;BME280;23694;43.274;26.924;2024-02-23T11:02:49;98605.78;;;17.05;38.55
37856;BME280;23694;43.274;26.924;2024-02-23T11:05:18;98599.16;;;17.53;37.82
37856;BME280;23694;43.274;26.924;2024-02-23T11:07:48;98598.41;;;17.95;36.84
37856;BME280;23694;43.274;26.924;2024-02-23T11:10:17;98599.97;;;18.14;36.50
37856;BME280;23694;43.274;26.924;2024-02-23T11:12:45;98591.59;;;18.34;35.77
37856;BME280;23694;43.274;26.924;2024-02-23T11:15:29;98594.94;;;17.42;37.22
37856;BME280;23694;43.274;26.924;2024-02-23T11:17:55;98597.69;;;16.54;37.67
37856;BME280;23694;43.274;26.924;2024-02-23T11:20:21;98592.41;;;16.89;37.69
37856;BME280;23694;43.274;26.924;2024-02-23T11:22:52;98588.50;;;16.93;38.34
37856;BME280;23694;43.274;26.924;2024-02-23T11:25:26;98591.50;;;16.63;39.51
37856;BME280;23694;43.274;26.924;2024-02-23T11:27:53;98587.41;;;16.51;39.91
37856;BME280;23694;43.274;26.924;2024-02-23T11:30:19;98584.25;;;16.02;40.75
37856;BME280;23694;43.274;26.924;2024-02-23T11:32:47;98583.44;;;16.19;40.21
37856;BME280;23694;43.274;26.924;2024-02-23T11:35:15;98580.84;;;16.37;40.52
37856;BME280;23694;43.274;26.924;2024-02-23T11:37:55;98576.47;;;16.63;39.07
37856;BME280;23694;43.274;26.924;2024-02-23T11:40:26;98573.16;;;16.79;38.61
37856;BME280;23694;43.274;26.924;2024-02-23T11:42:55;98573.13;;;16.61;38.30
37856;BME280;23694;43.274;26.924;2024-02-23T11:45:21;98574.28;;;16.76;37.72
37856;BME280;23694;43.274;26.924;2024-02-23T11:47:48;98570.94;;;16.57;37.33
37856;BME280;23694;43.274;26.924;2024-02-23T11:50:14;98568.38;;;16.47;37.13
37856;BME280;23694;43.274;26.924;2024-02-23T11:52:42;98567.94;;;16.52;37.19
37856;BME280;23694;43.274;26.924;2024-02-23T11:55:08;98568.94;;;16.68;36.05
37856;BME280;23694;43.274;26.924;2024-02-23T11:57:35;98564.44;;;16.33;36.72
37856;BME280;23694;43.274;26.924;2024-02-23T12:00:05;98563.78;;;16.49;35.96
37856;BME280;23694;43.274;26.924;2024-02-23T12:02:34;98550.84;;;16.28;35.74
37856;BME280;23694;43.274;26.924;2024-02-23T12:05:01;98559.09;;;16.43;35.42
37856;BME280;23694;43.274;26.924;2024-02-23T12:07:31;98561.13;;;16.49;35.01
37856;BME280;23694;43.274;26.924;2024-02-23T12:09:58;98556.91;;;16.92;34.52
37856;BME280;23694;43.274;26.924;2024-02-23T12:12:27;98562.72;;;17.47;33.95
37856;BME280;23694;43.274;26.924;2024-02-23T12:14:54;98561.44;;;16.82;34.92
37856;BME280;23694;43.274;26.924;2024-02-23T12:17:20;98559.50;;;17.09;34.36
37856;BME280;23694;43.274;26.924;2024-02-23T12:19:46;98560.66;;;16.89;35.00
37856;BME280;23694;43.274;26.924;2024-02-23T12:22:13;98552.97;;;16.78;35.26
37856;BME280;23694;43.274;26.924;2024-02-23T12:24:41;98550.75;;;17.09;34.98
37856;BME280;23694;43.274;26.924;2024-02-23T12:27:07;98556.34;;;17.32;34.45
37856;BME280;23694;43.274;26.924;2024-02-23T12:29:34;98550.56;;;17.36;34.83
37856;BME280;23694;43.274;26.924;2024-02-23T12:32:07;98554.06;;;17.37;35.35
37856;BME280;23694;43.274;26.924;2024-02-23T12:34:34;98546.09;;;17.37;35.14
37856;BME280;23694;43.274;26.924;2024-02-23T12:37:02;98548.63;;;17.13;34.98
37856;BME280;23694;43.274;26.924;2024-02-23T12:39:29;98554.56;;;17.40;35.15
37856;BME280;23694;43.274;26.924;2024-02-23T12:41:56;98544.44;;;17.36;35.30
37856;BME280;23694;43.274;26.924;2024-02-23T12:44:23;98553.72;;;18.00;35.05
37856;BME280;23694;43.274;26.924;2024-02-23T12:46:49;98548.34;;;18.34;32.99
37856;BME280;23694;43.274;26.924;2024-02-23T12:49:15;98544.69;;;17.77;34.53